createdAt,value
2018-06-20T00:00:10.339Z,100371.14
2018-06-20T00:01:46.182Z,100367.28
2018-06-20T00:03:21.875Z,100366.63
2018-06-20T00:04:57.448Z,100364.02
2018-06-20T00:06:33.075Z,100371.31
2018-06-20T00:08:08.668Z,100370.50
2018-06-20T00:09:44.238Z,100362.10
2018-06-20T00:11:21.671Z,100357.78
2018-06-20T00:12:57.289Z,100359.73
2018-06-20T00:14:32.870Z,100361.84
2018-06-20T00:16:08.434Z,100366.37
2018-06-20T00:17:44.051Z,100364.53
2018-06-20T00:19:19.618Z,100365.53
2018-06-20T00:20:55.214Z,100363.75
2018-06-20T00:22:30.822Z,100360.55
2018-06-20T00:24:06.367Z,100356.53
2018-06-20T00:25:41.915Z,100358.56
2018-06-20T00:27:17.529Z,100358.22
2018-06-20T00:28:53.078Z,100358.52
2018-06-20T00:30:28.715Z,100360.22
2018-06-20T00:32:04.332Z,100360.66
2018-06-20T00:33:39.967Z,100361.06
2018-06-20T00:35:15.717Z,100361.61
2018-06-20T00:36:51.329Z,100363.09
2018-06-20T00:38:26.909Z,100362.28
2018-06-20T00:40:02.711Z,100363.50
2018-06-20T00:41:38.371Z,100364.53
2018-06-20T00:43:13.962Z,100362.02
2018-06-20T00:44:49.605Z,100361.36
2018-06-20T00:46:25.201Z,100358.67
2018-06-20T00:48:00.884Z,100361.36
2018-06-20T00:49:36.477Z,100358.19
2018-06-20T00:51:12.085Z,100369.95
2018-06-20T00:52:47.726Z,100364.05
2018-06-20T00:54:23.322Z,100368.04
2018-06-20T00:56:10.319Z,100368.14
2018-06-20T00:57:45.934Z,100370.38
2018-06-20T00:59:21.520Z,100363.34
2018-06-20T01:00:57.131Z,100369.27
2018-06-20T01:02:32.777Z,100371.78
2018-06-20T01:04:08.395Z,100373.88
2018-06-20T01:05:43.988Z,100366.08
2018-06-20T01:07:19.588Z,100363.42
2018-06-20T01:08:56.691Z,100361.64
2018-06-20T01:10:32.316Z,100363.34
2018-06-20T01:12:07.879Z,100361.94
2018-06-20T01:13:43.477Z,100362.37
2018-06-20T01:15:19.142Z,100355.68
2018-06-20T01:16:54.749Z,100359.59
2018-06-20T01:18:30.625Z,100353.42
2018-06-20T01:20:06.223Z,100359.66
2018-06-20T01:21:41.818Z,100357.50
2018-06-20T01:23:17.401Z,100360.30
2018-06-20T01:24:53.303Z,100355.35
2018-06-20T01:26:28.889Z,100359.34
2018-06-20T01:28:04.456Z,100360.41
2018-06-20T01:29:40.075Z,100357.84
2018-06-20T01:31:15.718Z,100368.17
2018-06-20T01:32:51.351Z,100358.66
2018-06-20T01:34:27.009Z,100358.87
2018-06-20T01:36:02.671Z,100359.53
2018-06-20T01:37:38.282Z,100363.29
2018-06-20T01:39:13.858Z,100364.79
2018-06-20T01:40:49.470Z,100360.83
2018-06-20T01:42:25.072Z,100364.84
2018-06-20T01:44:00.729Z,100363.01
2018-06-20T01:45:36.640Z,100359.39
2018-06-20T01:47:12.215Z,100355.72
2018-06-20T01:48:47.796Z,100355.64
2018-06-20T01:50:26.997Z,100354.37
2018-06-20T01:52:02.657Z,100355.41
2018-06-20T01:53:38.372Z,100354.20
2018-06-20T01:55:14.014Z,100355.50
2018-06-20T01:56:49.620Z,100344.75
2018-06-20T01:58:25.386Z,100348.98
2018-06-20T02:00:01.758Z,100346.08
2018-06-20T02:01:37.756Z,100351.16
2018-06-20T02:03:13.432Z,100346.92
2018-06-20T02:04:49.054Z,100345.45
2018-06-20T02:06:24.684Z,100350.51
2018-06-20T02:08:00.290Z,100348.81
2018-06-20T02:09:35.876Z,100353.88
2018-06-20T02:11:11.444Z,100348.97
2018-06-20T02:12:47.066Z,100354.20
2018-06-20T02:14:22.886Z,100348.17
2018-06-20T02:15:58.451Z,100349.73
2018-06-20T02:17:34.034Z,100346.23
2018-06-20T02:19:09.618Z,100354.23
2018-06-20T02:20:45.258Z,100346.98
2018-06-20T02:22:20.837Z,100355.41
2018-06-20T02:23:56.461Z,100357.36
2018-06-20T02:25:32.474Z,100356.02
2018-06-20T02:27:08.047Z,100357.34
2018-06-20T02:32:54.791Z,100353.64
2018-06-20T02:34:30.413Z,100355.55
2018-06-20T02:36:11.314Z,100353.62
2018-06-20T02:37:47.323Z,100354.86
2018-06-20T02:39:22.973Z,100350.67
2018-06-20T02:40:58.605Z,100349.09
2018-06-20T02:42:34.239Z,100350.38
2018-06-20T02:44:10.260Z,100346.16
2018-06-20T02:45:45.895Z,100346.05
2018-06-20T02:47:27.727Z,100343.20
2018-06-20T02:49:03.384Z,100347.56
2018-06-20T02:50:39.105Z,100343.84
2018-06-20T02:52:14.685Z,100340.01
2018-06-20T02:53:50.380Z,100344.67
2018-06-20T02:55:26.018Z,100342.33
2018-06-20T02:57:01.616Z,100334.63
2018-06-20T02:58:37.338Z,100333.03
2018-06-20T03:00:12.945Z,100338.83
2018-06-20T03:01:48.594Z,100338.76
2018-06-20T03:03:24.267Z,100332.92
2018-06-20T03:04:59.831Z,100334.50
2018-06-20T03:06:35.414Z,100330.80
2018-06-20T03:08:11.387Z,100338.02
2018-06-20T03:09:46.970Z,100334.25
2018-06-20T03:11:22.620Z,100336.48
2018-06-20T03:12:58.217Z,100341.53
2018-06-20T03:14:34.637Z,100339.50
2018-06-20T03:16:10.295Z,100344.70
2018-06-20T03:17:46.317Z,100316.31
2018-06-20T03:19:21.910Z,100335.09
2018-06-20T03:20:57.539Z,100332.93
2018-06-20T03:22:34.282Z,100331.53
2018-06-20T03:24:09.867Z,100334.20
2018-06-20T03:25:45.532Z,100330.42
2018-06-20T03:27:21.170Z,100334.63
2018-06-20T03:28:56.805Z,100333.89
2018-06-20T03:30:32.490Z,100337.24
2018-06-20T03:32:08.127Z,100340.53
2018-06-20T03:33:44.277Z,100337.23
2018-06-20T03:35:19.863Z,100337.91
2018-06-20T03:36:55.659Z,100338.17
2018-06-20T03:38:31.303Z,100344.39
2018-06-20T03:40:06.938Z,100337.14
2018-06-20T03:41:42.604Z,100343.47
2018-06-20T03:43:18.261Z,100338.47
2018-06-20T03:44:54.093Z,100342.58
2018-06-20T03:46:29.698Z,100340.59
2018-06-20T03:48:05.308Z,100337.94
2018-06-20T03:49:40.998Z,100332.94
2018-06-20T03:51:16.656Z,100334.75
2018-06-20T03:52:52.266Z,100338.09
2018-06-20T03:54:28.204Z,100339.02
2018-06-20T03:56:03.788Z,100338.85
2018-06-20T03:57:39.397Z,100337.00
2018-06-20T03:59:15.039Z,100335.89
2018-06-20T04:00:51.158Z,100331.00
2018-06-20T04:02:26.728Z,100334.66
2018-06-20T04:04:02.687Z,100332.63
2018-06-20T04:05:38.282Z,100336.08
2018-06-20T04:07:13.857Z,100328.87
2018-06-20T04:08:49.484Z,100330.25
2018-06-20T04:10:25.106Z,100326.54
2018-06-20T04:12:00.658Z,100318.98
2018-06-20T04:13:36.280Z,100317.77
2018-06-20T04:15:11.993Z,100319.98
2018-06-20T04:16:47.580Z,100316.75
2018-06-20T04:18:29.241Z,100322.20
2018-06-20T04:20:04.810Z,100323.27
2018-06-20T04:21:40.439Z,100321.41
2018-06-20T04:23:16.079Z,100310.23
2018-06-20T04:24:51.701Z,100306.31
2018-06-20T04:26:27.287Z,100309.94
2018-06-20T04:28:03.017Z,100307.75
2018-06-20T04:29:38.563Z,100311.87
2018-06-20T04:31:14.166Z,100312.28
2018-06-20T04:32:49.830Z,100313.12
2018-06-20T04:34:25.824Z,100302.35
2018-06-20T04:36:01.435Z,100301.50
2018-06-20T04:37:38.213Z,100302.02
2018-06-20T04:39:14.766Z,100303.77
2018-06-20T04:40:50.501Z,100304.27
2018-06-20T04:42:26.099Z,100300.46
2018-06-20T04:44:01.728Z,100302.38
2018-06-20T04:45:38.038Z,100300.94
2018-06-20T04:47:14.098Z,100297.98
2018-06-20T04:48:52.517Z,100305.41
2018-06-20T04:50:29.748Z,100303.12
2018-06-20T04:52:10.147Z,100297.73
2018-06-20T04:53:46.457Z,100304.70
2018-06-20T04:55:25.922Z,100305.23
2018-06-20T04:57:02.492Z,100301.08
2018-06-20T04:58:38.536Z,100301.56
2018-06-20T05:00:17.005Z,100301.34
2018-06-20T05:02:01.552Z,100305.71
2018-06-20T05:03:40.974Z,100307.33
2018-06-20T05:05:17.051Z,100310.09
2018-06-20T05:06:56.227Z,100311.99
2018-06-20T05:08:34.079Z,100314.18
2018-06-20T05:10:10.650Z,100309.56
2018-06-20T05:11:50.717Z,100309.56
2018-06-20T05:13:30.390Z,100315.67
2018-06-20T05:15:06.798Z,100310.59
2018-06-20T05:16:43.318Z,100314.69
2018-06-20T05:18:20.222Z,100311.44
2018-06-20T05:19:57.741Z,100312.34
2018-06-20T05:21:35.831Z,100317.48
2018-06-20T05:23:15.167Z,100318.39
2018-06-20T05:24:51.551Z,100315.76
2018-06-20T05:26:27.306Z,100318.48
2018-06-20T05:28:03.022Z,100317.45
2018-06-20T05:29:38.689Z,100316.28
2018-06-20T05:31:14.279Z,100308.52
2018-06-20T05:32:50.132Z,100310.52
2018-06-20T05:34:25.974Z,100308.13
2018-06-20T05:36:01.904Z,100311.47
2018-06-20T05:37:37.541Z,100309.73
2018-06-20T05:39:13.401Z,100310.56
2018-06-20T05:40:48.990Z,100315.59
2018-06-20T05:42:26.676Z,100313.03
2018-06-20T05:44:03.456Z,100316.59
2018-06-20T05:45:39.478Z,100309.66
2018-06-20T05:47:15.066Z,100306.44
2018-06-20T05:48:50.694Z,100305.81
2018-06-20T05:50:26.396Z,100304.98
2018-06-20T05:52:02.274Z,100304.55
2018-06-20T05:53:37.938Z,100309.31
2018-06-20T05:55:13.871Z,100307.84
2018-06-20T05:56:52.263Z,100305.00
2018-06-20T05:58:28.088Z,100299.42
2018-06-20T06:00:03.912Z,100301.17
2018-06-20T06:01:39.556Z,100298.77
2018-06-20T06:03:15.170Z,100249.65
2018-06-20T06:04:50.748Z,100298.55
2018-06-20T06:06:26.469Z,100299.59
2018-06-20T06:08:08.787Z,100302.88
2018-06-20T06:09:44.381Z,100294.42
2018-06-20T06:11:20.600Z,100295.39
2018-06-20T06:12:56.273Z,100297.73
2018-06-20T06:14:32.047Z,100298.55
2018-06-20T06:16:07.697Z,100292.66
2018-06-20T06:17:44.195Z,100290.63
2018-06-20T06:19:19.739Z,100294.46
2018-06-20T06:20:55.370Z,100290.78
2018-06-20T06:22:31.058Z,100292.96
2018-06-20T06:24:06.709Z,100292.38
2018-06-20T06:25:42.327Z,100293.18
2018-06-20T06:27:17.939Z,100296.41
2018-06-20T06:28:53.588Z,100293.38
2018-06-20T06:30:29.196Z,100289.86
2018-06-20T06:32:04.796Z,100289.74
2018-06-20T06:33:40.525Z,100282.48
2018-06-20T06:35:16.569Z,100286.45
2018-06-20T06:36:52.203Z,100283.77
2018-06-20T06:38:28.047Z,100289.55
2018-06-20T06:40:03.759Z,100287.01
2018-06-20T06:41:39.452Z,100285.62
2018-06-20T06:43:15.074Z,100286.36
2018-06-20T06:44:51.159Z,100279.97
2018-06-20T06:46:26.775Z,100274.17
2018-06-20T06:48:02.655Z,100273.47
2018-06-20T06:49:38.330Z,100275.17
2018-06-20T06:51:13.884Z,100281.20
2018-06-20T06:52:49.526Z,100275.40
2018-06-20T06:54:25.122Z,100271.73
2018-06-20T06:56:01.306Z,100274.23
2018-06-20T06:57:37.015Z,100270.56
2018-06-20T06:59:12.632Z,100269.63
2018-06-20T07:00:48.321Z,100273.30
2018-06-20T07:02:24.194Z,100271.81
2018-06-20T07:03:59.829Z,100267.91
2018-06-20T07:05:35.430Z,100269.06
2018-06-20T07:07:11.044Z,100268.12
2018-06-20T07:08:46.607Z,100270.23
2018-06-20T07:10:22.231Z,100268.92
2018-06-20T07:11:58.103Z,100266.10
2018-06-20T07:13:33.739Z,100265.08
2018-06-20T07:15:09.412Z,100267.72
2018-06-20T07:16:44.985Z,100265.62
2018-06-20T07:18:22.810Z,100260.41
2018-06-20T07:19:58.378Z,100260.28
2018-06-20T07:21:34.242Z,100257.66
2018-06-20T07:23:09.858Z,100256.25
2018-06-20T07:24:45.467Z,100256.70
2018-06-20T07:26:21.049Z,100254.77
2018-06-20T07:27:56.660Z,100248.03
2018-06-20T07:29:32.297Z,100249.38
2018-06-20T07:31:07.871Z,100251.11
2018-06-20T07:32:43.495Z,100253.21
2018-06-20T07:34:19.150Z,100251.19
2018-06-20T07:35:54.846Z,100251.85
2018-06-20T07:37:30.375Z,100252.73
2018-06-20T07:39:07.227Z,100253.29
2018-06-20T07:40:42.993Z,100252.20
2018-06-20T07:42:18.689Z,100247.52
2018-06-20T07:43:54.355Z,100246.36
2018-06-20T07:45:29.998Z,100244.78
2018-06-20T07:47:05.918Z,100244.33
2018-06-20T07:48:41.502Z,100242.93
2018-06-20T07:50:19.339Z,100238.14
2018-06-20T07:51:54.952Z,100242.42
2018-06-20T07:53:30.591Z,100239.91
2018-06-20T07:55:06.210Z,100238.41
2018-06-20T07:56:41.851Z,100238.34
2018-06-20T07:58:22.685Z,100235.55
2018-06-20T08:00:03.588Z,100233.16
2018-06-20T08:01:55.805Z,100232.41
2018-06-20T08:03:36.953Z,100234.59
2018-06-20T08:05:17.759Z,100231.30
2018-06-20T08:06:58.764Z,100235.16
2018-06-20T08:08:39.759Z,100235.03
2018-06-20T08:10:21.645Z,100235.05
2018-06-20T08:12:02.547Z,100228.81
2018-06-20T08:13:43.481Z,100225.51
2018-06-20T08:15:24.528Z,100229.80
2018-06-20T08:17:06.246Z,100225.51
2018-06-20T08:18:47.168Z,100228.80
2018-06-20T08:20:25.001Z,100222.01
2018-06-20T08:22:00.667Z,100217.52
2018-06-20T08:23:36.245Z,100226.27
2018-06-20T08:25:11.855Z,100222.52
2018-06-20T08:26:47.420Z,100218.52
2018-06-20T08:28:23.035Z,100210.27
2018-06-20T08:29:59.343Z,100210.16
2018-06-20T08:31:34.906Z,100208.98
2018-06-20T08:33:10.531Z,100214.89
2018-06-20T08:34:46.219Z,100205.73
2018-06-20T08:36:22.072Z,100209.30
2018-06-20T08:37:57.668Z,100206.37
2018-06-20T08:39:33.356Z,100205.87
2018-06-20T08:41:08.955Z,100203.05
2018-06-20T08:42:44.534Z,100196.73
2018-06-20T08:44:20.270Z,100201.03
2018-06-20T08:45:55.907Z,100200.12
2018-06-20T08:47:31.862Z,100198.07
2018-06-20T08:49:14.251Z,100189.94
2018-06-20T08:50:49.839Z,100184.02
2018-06-20T08:52:25.789Z,100185.47
2018-06-20T08:54:01.434Z,100179.31
2018-06-20T08:55:37.063Z,100188.73
2018-06-20T08:57:12.641Z,100186.61
2018-06-20T08:58:48.262Z,100180.39
2018-06-20T09:00:29.128Z,100182.10
2018-06-20T09:02:04.772Z,100176.98
2018-06-20T09:03:40.440Z,100177.56
2018-06-20T09:05:21.382Z,100177.13
2018-06-20T09:07:02.208Z,100179.95
2018-06-20T09:08:43.152Z,100176.98
2018-06-20T09:10:29.170Z,100174.69
2018-06-20T09:12:11.175Z,100175.75
2018-06-20T09:13:52.272Z,100169.48
2018-06-20T09:15:33.518Z,100166.78
2018-06-20T09:17:14.418Z,100162.87
2018-06-20T09:18:55.387Z,100159.72
2018-06-20T09:20:31.098Z,100158.46
2018-06-20T09:22:06.690Z,100158.52
2018-06-20T09:23:42.259Z,100152.89
2018-06-20T09:25:17.887Z,100154.70
2018-06-20T09:26:53.541Z,100148.92
2018-06-20T09:28:29.255Z,100152.05
2018-06-20T09:30:04.967Z,100147.23
2018-06-20T09:31:41.750Z,100147.10
2018-06-20T09:33:17.517Z,100147.80
2018-06-20T09:34:53.796Z,100142.32
2018-06-20T09:36:29.433Z,100148.97
2018-06-20T09:38:05.044Z,100147.00
2018-06-20T09:39:40.773Z,100143.45
2018-06-20T09:41:16.652Z,100145.27
2018-06-20T09:42:52.383Z,100142.78
2018-06-20T09:44:28.449Z,100139.95
2018-06-20T09:46:04.016Z,100135.75
2018-06-20T09:47:39.631Z,100133.17
2018-06-20T09:49:15.347Z,100136.92
2018-06-20T09:50:56.894Z,100138.59
2018-06-20T09:52:32.513Z,100136.19
2018-06-20T09:54:08.090Z,100132.36
2018-06-20T09:55:43.744Z,100135.56
2018-06-20T09:57:19.445Z,100130.17
2018-06-20T09:58:55.081Z,100128.09
2018-06-20T10:00:36.079Z,100118.09
2018-06-20T10:02:17.064Z,100113.82
2018-06-20T10:03:57.951Z,100115.18
2018-06-20T10:05:39.103Z,100107.42
2018-06-20T10:07:18.950Z,100110.67
2018-06-20T10:11:05.547Z,100111.95
2018-06-20T10:13:18.467Z,100105.52
2018-06-20T10:14:54.059Z,100100.05
2018-06-20T10:16:30.767Z,100101.45
2018-06-20T10:18:06.447Z,100093.92
2018-06-20T10:19:42.112Z,100092.92
2018-06-20T10:21:18.178Z,100096.23
2018-06-20T10:22:54.176Z,100097.51
2018-06-20T10:24:29.960Z,100107.39
2018-06-20T10:26:06.377Z,100098.60
2018-06-20T10:27:43.363Z,100097.25
2018-06-20T10:29:19.862Z,100093.36
2018-06-20T10:30:56.260Z,100095.70
2018-06-20T10:32:32.587Z,100095.02
2018-06-20T10:34:09.056Z,100087.74
2018-06-20T10:35:45.800Z,100087.39
2018-06-20T10:37:23.262Z,100079.16
2018-06-20T10:39:00.067Z,100083.69
2018-06-20T10:40:42.214Z,100075.61
2018-06-20T10:42:20.317Z,100068.94
2018-06-20T10:44:00.621Z,100072.91
2018-06-20T10:45:50.454Z,100065.36
2018-06-20T10:47:32.689Z,100082.27
2018-06-20T10:49:09.097Z,100073.65
2018-06-20T10:50:47.452Z,100068.81
2018-06-20T10:52:24.035Z,100077.70
2018-06-20T10:54:03.171Z,100063.80
2018-06-20T10:55:39.620Z,100059.19
2018-06-20T10:57:20.990Z,100048.83
2018-06-20T10:59:01.939Z,100046.61
2018-06-20T11:00:43.621Z,100047.52
2018-06-20T11:02:24.735Z,100046.41
2018-06-20T11:04:06.177Z,100051.70
2018-06-20T11:05:48.487Z,100038.62
2018-06-20T11:07:30.365Z,100033.58
2018-06-20T11:09:13.413Z,99991.02
2018-06-20T11:12:58.186Z,100035.20
2018-06-20T11:14:34.315Z,100035.97
2018-06-20T11:16:09.976Z,100032.89
2018-06-20T11:17:46.231Z,100029.52
2018-06-20T11:19:23.531Z,100032.91
2018-06-20T11:21:00.123Z,100022.44
2018-06-20T11:22:35.680Z,100020.13
2018-06-20T11:24:11.525Z,100018.58
2018-06-20T11:25:47.771Z,100011.44
2018-06-20T11:27:23.929Z,100013.18
2018-06-20T11:29:00.112Z,100005.57
2018-06-20T11:30:36.060Z,100000.23
2018-06-20T11:32:12.151Z,100005.32
2018-06-20T11:33:48.395Z,100002.18
2018-06-20T11:35:25.630Z,99985.09
2018-06-20T11:37:02.863Z,100000.52
2018-06-20T11:38:38.546Z,99989.80
2018-06-20T11:40:14.484Z,99983.53
2018-06-20T11:41:50.406Z,99995.22
2018-06-20T11:43:26.349Z,99991.33
2018-06-20T11:45:02.275Z,99992.36
2018-06-20T11:46:44.191Z,99992.08
2018-06-20T11:48:21.182Z,99997.90
2018-06-20T11:49:57.397Z,99981.36
2018-06-20T11:51:33.053Z,99977.91
2018-06-20T11:53:11.671Z,99981.05
2018-06-20T11:54:48.394Z,99972.09
2018-06-20T11:56:24.536Z,99975.64
2018-06-20T12:00:15.739Z,99969.33
2018-06-20T12:01:56.975Z,99963.49
2018-06-20T12:03:37.845Z,99970.18
2018-06-20T12:05:19.369Z,99963.45
2018-06-20T12:07:01.416Z,99966.59
2018-06-20T12:08:42.553Z,99962.36
2018-06-20T12:10:23.490Z,99962.66
2018-06-20T12:12:04.444Z,99952.40
2018-06-20T12:13:45.511Z,99955.85
2018-06-20T12:15:28.243Z,99956.72
2018-06-20T12:17:06.119Z,99944.29
2018-06-20T12:18:49.264Z,99949.43
2018-06-20T12:20:34.105Z,99941.43
2018-06-20T12:22:14.973Z,99942.22
2018-06-20T12:23:59.248Z,99948.20
2018-06-20T12:25:45.993Z,99935.66
2018-06-20T12:27:28.316Z,99935.06
2018-06-20T12:29:11.747Z,99934.63
2018-06-20T12:30:54.659Z,99928.05
2018-06-20T12:32:35.727Z,99927.93
2018-06-20T12:34:17.585Z,99926.81
2018-06-20T12:35:58.542Z,99929.45
2018-06-20T12:37:42.173Z,99921.59
2018-06-20T12:39:17.405Z,99916.50
2018-06-20T12:40:58.355Z,99910.55
2018-06-20T12:42:39.507Z,99920.27
2018-06-20T12:44:20.518Z,99912.84
2018-06-20T12:46:02.231Z,99909.37
2018-06-20T12:47:43.409Z,99907.52
2018-06-20T12:49:21.443Z,99908.17
2018-06-20T12:50:57.031Z,99911.53
2018-06-20T12:52:32.856Z,99901.27
2018-06-20T12:54:08.921Z,99911.83
2018-06-20T12:55:44.709Z,99910.97
2018-06-20T12:57:20.304Z,99909.13
2018-06-20T12:58:57.759Z,99908.45
2018-06-20T13:00:34.991Z,99896.11
2018-06-20T13:02:18.460Z,99902.48
2018-06-20T13:03:54.134Z,99904.63
2018-06-20T13:05:31.580Z,99893.13
2018-06-20T13:07:08.730Z,99896.33
2018-06-20T13:08:44.382Z,99889.17
2018-06-20T13:10:23.917Z,99890.36
2018-06-20T13:12:00.081Z,99887.81
2018-06-20T13:13:36.018Z,99882.84
2018-06-20T13:15:11.598Z,99881.69
2018-06-20T13:16:47.494Z,99871.14
2018-06-20T13:18:23.337Z,99875.80
2018-06-20T13:19:59.039Z,99876.33
2018-06-20T13:21:34.780Z,99878.45
2018-06-20T13:23:10.382Z,99868.97
2018-06-20T13:24:45.991Z,99865.34
2018-06-20T13:26:21.992Z,99869.41
2018-06-20T13:27:57.686Z,99863.23
2018-06-20T13:29:33.897Z,99868.55
2018-06-20T13:31:15.077Z,99859.23
2018-06-20T13:33:01.168Z,99861.88
2018-06-20T13:34:41.954Z,99862.16
2018-06-20T13:36:23.021Z,99872.13
2018-06-20T13:38:04.119Z,99862.12
2018-06-20T13:39:46.170Z,99860.30
2018-06-20T13:41:32.783Z,99850.34
2018-06-20T13:43:16.147Z,99852.09
2018-06-20T13:44:51.766Z,99846.16
2018-06-20T13:46:38.709Z,99847.93
2018-06-20T13:48:19.880Z,99840.83
2018-06-20T13:49:58.879Z,99849.67
2018-06-20T13:51:34.561Z,99846.79
2018-06-20T13:53:10.191Z,99845.09
2018-06-20T13:54:48.311Z,99845.06
2018-06-20T13:56:24.027Z,99838.78
2018-06-20T13:58:00.707Z,99838.47
2018-06-20T13:59:36.695Z,99834.12
2018-06-20T14:01:12.363Z,99836.86
2018-06-20T14:02:51.390Z,99827.80
2018-06-20T14:04:28.781Z,99824.44
2018-06-20T14:06:05.660Z,99827.02
2018-06-20T14:07:42.048Z,99820.95
2018-06-20T14:09:19.061Z,99827.45
2018-06-20T14:10:59.157Z,99822.48
2018-06-20T14:12:42.063Z,99820.05
2018-06-20T14:14:19.095Z,99813.88
2018-06-20T14:15:55.218Z,99816.27
2018-06-20T14:17:30.963Z,99807.31
2018-06-20T14:19:07.048Z,99806.54
2018-06-20T14:20:48.816Z,99809.50
2018-06-20T14:22:25.455Z,99816.88
2018-06-20T14:24:02.282Z,99805.75
2018-06-20T14:25:39.956Z,99808.86
2018-06-20T14:27:15.955Z,99806.36
2018-06-20T14:28:51.971Z,99795.44
2018-06-20T14:32:40.321Z,99797.09
2018-06-20T14:34:25.664Z,99788.88
2018-06-20T14:36:06.944Z,99786.78
2018-06-20T14:37:49.575Z,99785.86
2018-06-20T14:39:31.058Z,99786.84
2018-06-20T14:41:12.423Z,99782.55
2018-06-20T14:42:55.037Z,99783.89
2018-06-20T14:44:30.939Z,99784.22
2018-06-20T14:46:12.119Z,99783.46
2018-06-20T14:47:48.118Z,99781.84
2018-06-20T14:49:25.563Z,99780.16
2018-06-20T14:51:01.294Z,99779.95
2018-06-20T14:52:37.034Z,99782.75
2018-06-20T14:54:12.649Z,99772.77
2018-06-20T14:55:48.258Z,99772.19
2018-06-20T14:57:23.901Z,99772.97
2018-06-20T14:58:59.518Z,99764.27
2018-06-20T15:00:36.437Z,99774.04
2018-06-20T15:02:12.628Z,99774.02
2018-06-20T15:03:49.658Z,99764.10
2018-06-20T15:05:25.282Z,99767.86
2018-06-20T15:07:01.931Z,99768.57
2018-06-20T15:08:37.552Z,99761.73
2018-06-20T15:10:13.241Z,99767.41
2018-06-20T15:11:48.847Z,99762.42
2018-06-20T15:13:24.486Z,99759.91
2018-06-20T15:15:00.156Z,99758.69
2018-06-20T15:16:41.161Z,99755.17
2018-06-20T15:18:17.255Z,99751.49
2018-06-20T15:19:52.854Z,99754.70
2018-06-20T15:21:28.567Z,99746.14
2018-06-20T15:23:04.279Z,99744.88
2018-06-20T15:24:40.510Z,99738.74
2018-06-20T15:26:21.615Z,99737.57
2018-06-20T15:30:04.006Z,99726.34
2018-06-20T15:31:45.935Z,99734.33
2018-06-20T15:33:26.814Z,99730.44
2018-06-20T15:35:08.375Z,99730.44
2018-06-20T15:36:49.289Z,99728.92
2018-06-20T15:38:26.973Z,99729.84
2018-06-20T15:40:02.954Z,99731.58
2018-06-20T15:41:38.734Z,99729.67
2018-06-20T15:43:14.490Z,99723.59
2018-06-20T15:44:50.437Z,99718.72
2018-06-20T15:46:26.086Z,99720.30
2018-06-20T15:48:01.638Z,99709.84
2018-06-20T15:49:37.254Z,99709.84
2018-06-20T15:51:12.953Z,99707.46
2018-06-20T15:52:48.528Z,99707.75
2018-06-20T15:54:24.091Z,99710.06
2018-06-20T15:55:59.834Z,99700.14
2018-06-20T15:57:35.443Z,99702.34
2018-06-20T15:59:11.096Z,99696.11
2018-06-20T16:00:47.090Z,99691.89
2018-06-20T16:02:23.423Z,99699.77
2018-06-20T16:03:59.837Z,99697.33
2018-06-20T16:05:38.357Z,99690.48
2018-06-20T16:07:14.329Z,99689.73
2018-06-20T16:08:56.034Z,99688.28
2018-06-20T16:10:35.244Z,99686.00
2018-06-20T16:12:12.788Z,99685.66
2018-06-20T16:13:50.136Z,99673.28
2018-06-20T16:15:26.428Z,99680.73
2018-06-20T16:17:03.209Z,99675.19
2018-06-20T16:18:43.248Z,99676.64
2018-06-20T16:20:24.388Z,99677.95
2018-06-20T16:22:05.247Z,99679.09
2018-06-20T16:23:46.580Z,99676.59
2018-06-20T16:25:29.479Z,99673.55
2018-06-20T16:27:10.394Z,99672.18
2018-06-20T16:28:51.376Z,99669.16
2018-06-20T16:30:31.705Z,99665.95
2018-06-20T16:32:07.292Z,99668.47
2018-06-20T16:33:42.902Z,99668.94
2018-06-20T16:35:18.675Z,99665.91
2018-06-20T16:36:54.428Z,99660.33
2018-06-20T16:38:31.486Z,99664.63
2018-06-20T16:40:09.460Z,99662.41
2018-06-20T16:41:47.841Z,99666.58
2018-06-20T16:43:24.931Z,99665.70
2018-06-20T16:45:02.996Z,99660.38
2018-06-20T16:46:38.977Z,99662.35
2018-06-20T16:48:15.734Z,99657.20
2018-06-20T16:49:52.863Z,99652.14
2018-06-20T16:51:28.539Z,99659.91
2018-06-20T16:53:04.138Z,99656.59
2018-06-20T16:54:39.986Z,99649.36
2018-06-20T16:56:17.862Z,99653.97
2018-06-20T16:57:54.940Z,99650.84
2018-06-20T16:59:30.561Z,99645.94
2018-06-20T17:01:11.963Z,99645.79
2018-06-20T17:02:48.879Z,99644.00
2018-06-20T17:04:24.531Z,99646.33
2018-06-20T17:06:00.168Z,99648.24
2018-06-20T17:07:36.706Z,99645.72
2018-06-20T17:09:12.624Z,99644.22
2018-06-20T17:10:49.484Z,99648.91
2018-06-20T17:12:31.749Z,99648.28
2018-06-20T17:14:13.475Z,99646.86
2018-06-20T17:15:55.217Z,99645.05
2018-06-20T17:17:36.307Z,99637.50
2018-06-20T17:19:18.036Z,99635.95
2018-06-20T17:21:00.068Z,99635.66
2018-06-20T17:22:42.961Z,99632.77
2018-06-20T17:24:24.133Z,99630.94
2018-06-20T17:26:00.963Z,99626.36
2018-06-20T17:27:37.159Z,99633.00
2018-06-20T17:29:13.403Z,99634.45
2018-06-20T17:30:49.927Z,99635.95
2018-06-20T17:32:27.098Z,99629.63
2018-06-20T17:34:03.223Z,99629.18
2018-06-20T17:35:42.436Z,99629.42
2018-06-20T17:37:18.188Z,99627.16
2018-06-20T17:38:53.849Z,99628.61
2018-06-20T17:40:29.777Z,99629.67
2018-06-20T17:42:06.281Z,99621.77
2018-06-20T17:43:42.468Z,99620.42
2018-06-20T17:45:18.334Z,99622.03
2018-06-20T17:46:54.332Z,99620.77
2018-06-20T17:48:30.327Z,99623.32
2018-06-20T17:50:06.675Z,99620.63
2018-06-20T17:51:42.756Z,99621.95
2018-06-20T17:53:18.422Z,99623.45
2018-06-20T17:54:54.098Z,99617.66
2018-06-20T17:56:30.018Z,99617.05
2018-06-20T17:58:06.009Z,99617.18
2018-06-20T17:59:41.804Z,99616.22
2018-06-20T18:01:17.843Z,99617.77
2018-06-20T18:02:53.643Z,99614.11
2018-06-20T18:04:34.513Z,99612.59
2018-06-20T18:06:15.625Z,99615.24
2018-06-20T18:07:56.722Z,99611.17
2018-06-20T18:09:37.783Z,99608.88
2018-06-20T18:11:24.132Z,99603.73
2018-06-20T18:13:03.302Z,99602.38
2018-06-20T18:14:45.009Z,99602.70
2018-06-20T18:16:26.101Z,99603.03
2018-06-20T18:18:01.798Z,99596.64
2018-06-20T18:19:38.286Z,99596.89
2018-06-20T18:21:14.640Z,99595.41
2018-06-20T18:22:50.598Z,99597.36
2018-06-20T18:24:27.031Z,99600.20
2018-06-20T18:26:03.039Z,99602.91
2018-06-20T18:27:40.107Z,99602.27
2018-06-20T18:29:16.550Z,99605.70
2018-06-20T18:30:52.987Z,99601.48
2018-06-20T18:32:29.553Z,99600.22
2018-06-20T18:34:05.264Z,99600.55
2018-06-20T18:35:41.918Z,99598.91
2018-06-20T18:37:17.547Z,99599.14
2018-06-20T18:38:53.198Z,99591.80
2018-06-20T18:40:29.064Z,99597.22
2018-06-20T18:42:04.959Z,99597.02
2018-06-20T18:43:40.625Z,99592.78
2018-06-20T18:45:17.032Z,99597.34
2018-06-20T18:46:53.081Z,99593.59
2018-06-20T18:48:29.370Z,99595.70
2018-06-20T18:50:04.969Z,99599.10
2018-06-20T18:51:40.617Z,99601.19
2018-06-20T18:53:18.534Z,99600.76
2018-06-20T18:54:54.756Z,99598.52